Green Grove, Wisconsin
Current Conditions -  °F | °C
As of 2:15 PM on Thursday 29 Jan 2015 (Local Time) from KMDZ Reporting Station
Overcast Overcast  
Wind Chill: 17°   Ceiling: 3200
Heat Index: 30°   Visibility: 10mi
Dew Point: 19°   Wind: 22mph
Humidity: 63%   Direction: 320°NW
Pressure: 30.04"   Gusts: 31mph
Location:  44.9782°N, 90.5368°W
Report Text: KMDZ 292015Z AUTO 32019G27KT 10SM OVC032 M01/M07 A3004 RMK AO2 T10111073
Loading
Personal Weather Stations






























Interactive Weather Map New forecast layout! Learn more

10-Day Weather Forecast

Advertisements
Track Severe Weather on mobile